createdAt,value
2022-11-16T00:02:18.997Z,11.20
2022-11-16T00:04:45.866Z,11.20
2022-11-16T00:07:19.160Z,11.20
2022-11-16T00:09:53.051Z,11.10
2022-11-16T00:12:26.042Z,11.20
2022-11-16T00:14:52.902Z,11.30
2022-11-16T00:17:26.050Z,11.30
2022-11-16T00:19:52.912Z,11.20
2022-11-16T00:22:26.064Z,11.10
2022-11-16T00:24:53.012Z,11.10
2022-11-16T00:27:19.901Z,11.10
2022-11-16T00:29:53.061Z,11.20
2022-11-16T00:32:19.905Z,11.20
2022-11-16T00:34:53.100Z,11.20
2022-11-16T00:37:19.969Z,11.20
2022-11-16T00:39:46.835Z,11.10
2022-11-16T00:42:20.077Z,11.20
2022-11-16T00:44:47.001Z,11.30
2022-11-16T00:47:20.054Z,11.30
2022-11-16T00:49:46.911Z,11.30
2022-11-16T00:52:20.065Z,11.30
2022-11-16T00:54:46.919Z,11.30
2022-11-16T00:57:20.064Z,11.30
2022-11-16T00:59:46.937Z,11.40
2022-11-16T01:02:13.790Z,11.40
2022-11-16T01:04:47.097Z,11.40
2022-11-16T01:07:13.995Z,11.60
2022-11-16T01:09:47.085Z,11.70
2022-11-16T01:12:13.926Z,11.70
2022-11-16T01:14:50.139Z,11.60
2022-11-16T01:17:16.997Z,11.50
2022-11-16T01:19:50.237Z,11.40
2022-11-16T01:22:17.097Z,11.50
2022-11-16T01:24:52.094Z,11.60
2022-11-16T01:27:18.960Z,11.60
2022-11-16T01:29:45.808Z,11.40
2022-11-16T01:32:19.066Z,11.30
2022-11-16T01:34:52.127Z,11.30
2022-11-16T01:37:19.133Z,11.30
2022-11-16T01:39:46.028Z,11.50
2022-11-16T01:42:38.122Z,11.60
2022-11-16T01:45:28.098Z,11.70
2022-11-16T01:47:54.946Z,11.70
2022-11-16T01:50:28.122Z,11.70
2022-11-16T01:52:58.163Z,11.70
2022-11-16T01:55:31.072Z,11.60
2022-11-16T01:57:57.884Z,11.40
2022-11-16T02:00:31.161Z,11.20
2022-11-16T02:03:04.112Z,11.20
2022-11-16T02:06:18.525Z,11.10
2022-11-16T02:09:17.100Z,11.10
2022-11-16T02:12:13.245Z,11.00
2022-11-16T02:15:12.618Z,11.00
2022-11-16T02:18:18.094Z,11.00
2022-11-16T02:21:33.120Z,11.00
2022-11-16T02:24:09.090Z,11.10
2022-11-16T02:27:26.116Z,11.10
2022-11-16T02:29:54.150Z,11.20
2022-11-16T02:33:08.157Z,11.30
2022-11-16T02:35:47.647Z,11.40
2022-11-16T02:38:37.242Z,11.60
2022-11-16T02:41:11.067Z,11.50
2022-11-16T02:44:09.120Z,11.60
2022-11-16T02:46:40.407Z,11.60
2022-11-16T02:49:18.153Z,11.60
2022-11-16T02:51:51.817Z,11.70
2022-11-16T02:54:27.132Z,11.60
2022-11-16T02:57:10.130Z,11.50
2022-11-16T02:59:42.747Z,11.60
2022-11-16T03:02:56.107Z,11.60
2022-11-16T03:05:53.873Z,11.60
2022-11-16T03:08:29.189Z,11.70
2022-11-16T03:11:00.447Z,11.70
2022-11-16T03:13:36.123Z,11.70
2022-11-16T03:16:07.753Z,11.60
2022-11-16T03:18:41.141Z,11.50
2022-11-16T03:21:32.134Z,11.40
2022-11-16T03:24:05.180Z,11.50
2022-11-16T03:26:56.843Z,11.20
2022-11-16T03:29:48.202Z,11.20
2022-11-16T03:32:25.747Z,11.30
2022-11-16T03:35:37.146Z,11.20
2022-11-16T03:38:04.821Z,11.20
2022-11-16T03:40:40.172Z,11.20
2022-11-16T03:43:07.104Z,11.10
2022-11-16T03:45:33.984Z,11.10
2022-11-16T03:48:07.160Z,11.10
2022-11-16T03:50:34.022Z,11.10
2022-11-16T03:53:07.140Z,11.20
2022-11-16T03:55:33.983Z,11.20
2022-11-16T03:58:07.142Z,11.20
2022-11-16T04:00:34.115Z,11.30
2022-11-16T04:03:07.166Z,11.40
2022-11-16T04:05:34.012Z,11.50
2022-11-16T04:08:07.161Z,11.60
2022-11-16T04:10:40.176Z,11.60
2022-11-16T04:13:10.142Z,11.70
2022-11-16T04:15:37.030Z,11.70
2022-11-16T04:18:10.147Z,11.60
2022-11-16T04:20:36.974Z,11.40
2022-11-16T04:23:15.177Z,11.30
2022-11-16T04:25:42.047Z,11.40
2022-11-16T04:28:15.159Z,11.20
2022-11-16T04:30:53.147Z,11.20
2022-11-16T04:33:26.170Z,11.10
2022-11-16T04:35:53.047Z,11.00
2022-11-16T04:38:26.223Z,11.10
2022-11-16T04:40:53.117Z,11.10
2022-11-16T04:43:26.200Z,11.30
2022-11-16T04:45:53.052Z,11.20
2022-11-16T04:48:26.169Z,11.20
2022-11-16T04:50:53.017Z,11.20
2022-11-16T04:53:19.842Z,11.30
2022-11-16T04:55:57.969Z,11.30
2022-11-16T04:58:27.389Z,11.30
2022-11-16T05:01:01.199Z,11.20
2022-11-16T05:03:28.067Z,11.20
2022-11-16T05:06:01.201Z,11.20
2022-11-16T05:08:28.045Z,11.20
2022-11-16T05:11:01.212Z,11.30
2022-11-16T05:13:34.206Z,11.30
2022-11-16T05:16:01.045Z,11.00
2022-11-16T05:18:34.566Z,10.60
2022-11-16T05:21:01.593Z,10.50
2022-11-16T05:23:28.488Z,10.40
2022-11-16T05:26:02.205Z,10.40
2022-11-16T05:28:29.060Z,10.30
2022-11-16T05:31:02.225Z,10.30
2022-11-16T05:33:29.057Z,10.30
2022-11-16T05:36:02.197Z,10.30
2022-11-16T05:38:29.047Z,10.30
2022-11-16T05:40:55.875Z,10.30
2022-11-16T05:43:29.206Z,10.40
2022-11-16T05:45:56.045Z,10.40
2022-11-16T05:48:29.219Z,10.40
2022-11-16T05:50:59.981Z,10.40
2022-11-16T05:53:33.224Z,10.40
2022-11-16T05:56:00.182Z,10.50
2022-11-16T05:58:27.136Z,10.60
2022-11-16T06:01:00.284Z,10.70
2022-11-16T06:03:37.292Z,10.70
2022-11-16T06:06:04.962Z,10.60
2022-11-16T06:08:32.079Z,10.50
2022-11-16T06:11:10.259Z,10.50
2022-11-16T06:13:43.233Z,10.60
2022-11-16T06:16:10.229Z,10.50
2022-11-16T06:18:49.264Z,10.60
2022-11-16T06:21:17.948Z,10.60
2022-11-16T06:23:51.219Z,10.60
2022-11-16T06:26:24.255Z,10.60
2022-11-16T06:28:51.102Z,10.40
2022-11-16T06:31:24.232Z,10.30
2022-11-16T06:33:51.107Z,10.20
2022-11-16T06:36:24.294Z,10.10
2022-11-16T06:38:51.133Z,9.90
2022-11-16T06:41:18.205Z,9.80
2022-11-16T06:43:52.269Z,9.90
2022-11-16T06:46:19.134Z,9.80
2022-11-16T06:48:52.279Z,9.90
2022-11-16T06:51:19.118Z,10.00
2022-11-16T06:53:52.272Z,9.70
2022-11-16T06:56:25.302Z,9.60
2022-11-16T06:58:58.273Z,9.70
2022-11-16T07:01:25.206Z,9.80
2022-11-16T07:03:58.278Z,9.90
2022-11-16T07:06:25.169Z,10.00
2022-11-16T07:08:52.031Z,9.90
2022-11-16T07:11:25.234Z,9.90
2022-11-16T07:13:52.077Z,9.90
2022-11-16T07:16:25.280Z,9.80
2022-11-16T07:18:59.313Z,9.70
2022-11-16T07:21:26.263Z,9.50
2022-11-16T07:24:00.263Z,9.50
2022-11-16T07:26:27.196Z,9.50
2022-11-16T07:28:54.037Z,9.70
2022-11-16T07:31:27.343Z,9.70
2022-11-16T07:34:01.289Z,9.80
2022-11-16T07:36:34.312Z,10.00
2022-11-16T07:39:01.404Z,9.90
2022-11-16T07:41:35.351Z,10.00
2022-11-16T07:44:02.241Z,10.00
2022-11-16T07:46:45.873Z,10.30
2022-11-16T07:49:25.298Z,10.40
2022-11-16T07:51:52.155Z,10.60
2022-11-16T07:54:25.332Z,10.50
2022-11-16T07:56:55.185Z,10.60
2022-11-16T07:59:28.297Z,10.70
2022-11-16T08:02:01.345Z,10.70
2022-11-16T08:04:28.303Z,11.10
2022-11-16T08:07:01.370Z,11.20
2022-11-16T08:09:28.289Z,11.10
2022-11-16T08:11:55.113Z,11.30
2022-11-16T08:14:28.301Z,11.30
2022-11-16T08:17:01.335Z,11.40
2022-11-16T08:19:28.176Z,11.40
2022-11-16T08:21:55.307Z,11.50
2022-11-16T08:24:28.392Z,11.30
2022-11-16T08:26:55.254Z,11.10
2022-11-16T08:29:22.121Z,11.10
2022-11-16T08:31:55.342Z,11.00
2022-11-16T08:34:22.264Z,11.00
2022-11-16T08:36:55.334Z,11.00
2022-11-16T08:39:22.297Z,11.10
2022-11-16T08:41:55.293Z,11.20
2022-11-16T08:44:22.199Z,11.20
2022-11-16T08:47:03.322Z,11.30
2022-11-16T08:49:36.317Z,11.20
2022-11-16T08:52:16.324Z,11.20
2022-11-16T08:54:43.164Z,11.10
2022-11-16T08:57:16.354Z,11.00
2022-11-16T08:59:43.456Z,11.10
2022-11-16T09:02:17.403Z,11.30
2022-11-16T09:04:44.324Z,11.40
2022-11-16T09:07:11.247Z,11.60
2022-11-16T09:09:44.342Z,11.80
2022-11-16T09:12:11.188Z,11.90
2022-11-16T09:14:44.323Z,11.80
2022-11-16T09:17:11.242Z,11.60
2022-11-16T09:19:44.317Z,11.70
2022-11-16T09:22:11.220Z,11.70
2022-11-16T09:24:38.066Z,11.60
2022-11-16T09:27:11.356Z,11.60
2022-11-16T09:29:38.214Z,11.60
2022-11-16T09:32:12.367Z,11.80
2022-11-16T09:34:39.268Z,11.90
2022-11-16T09:37:12.349Z,11.90
2022-11-16T09:39:39.189Z,11.90
2022-11-16T09:42:34.384Z,12.20
2022-11-16T09:45:15.748Z,12.40
2022-11-16T09:47:56.367Z,12.70
2022-11-16T09:50:51.810Z,12.80
2022-11-16T09:53:32.722Z,12.90
2022-11-16T09:56:10.602Z,13.20
2022-11-16T09:58:55.358Z,13.20
2022-11-16T10:01:30.047Z,13.30
2022-11-16T10:04:39.381Z,13.40
2022-11-16T10:07:31.391Z,13.60
2022-11-16T10:09:58.339Z,13.60
2022-11-16T10:12:40.376Z,13.80
2022-11-16T10:15:32.806Z,13.90
2022-11-16T10:18:30.376Z,13.80
2022-11-16T10:21:39.362Z,13.80
2022-11-16T10:24:39.358Z,13.60
2022-11-16T10:27:21.831Z,13.50
2022-11-16T10:30:05.409Z,13.50
2022-11-16T10:32:41.236Z,13.70
2022-11-16T10:35:17.397Z,13.60
2022-11-16T10:37:51.219Z,13.40
2022-11-16T10:40:33.406Z,13.40
2022-11-16T10:43:16.016Z,13.50
2022-11-16T10:46:23.462Z,13.70
2022-11-16T10:49:09.127Z,13.90
2022-11-16T10:51:42.471Z,14.00
2022-11-16T10:54:23.399Z,14.10
2022-11-16T10:57:13.408Z,14.10
2022-11-16T10:59:46.986Z,14.30
2022-11-16T11:02:41.409Z,14.30
2022-11-16T11:05:19.272Z,14.40
2022-11-16T11:07:59.689Z,14.50
2022-11-16T11:10:33.700Z,14.60
2022-11-16T11:13:19.401Z,14.70
2022-11-16T11:15:46.364Z,14.90
2022-11-16T11:18:29.491Z,15.00
2022-11-16T11:21:05.552Z,15.20
2022-11-16T11:23:53.400Z,15.30
2022-11-16T11:26:37.319Z,15.50
2022-11-16T11:29:25.750Z,15.60
2022-11-16T11:32:24.484Z,15.60
2022-11-16T11:34:53.629Z,15.70
2022-11-16T11:37:39.422Z,15.70
2022-11-16T11:40:19.975Z,15.70
2022-11-16T11:43:03.423Z,15.50
2022-11-16T11:45:46.291Z,15.60
2022-11-16T11:48:48.439Z,15.60
2022-11-16T11:51:36.736Z,15.80
2022-11-16T11:54:10.424Z,15.90
2022-11-16T11:56:37.265Z,16.00
2022-11-16T11:59:10.452Z,16.00
2022-11-16T12:02:02.049Z,15.90
2022-11-16T12:05:26.450Z,16.00
2022-11-16T12:08:35.430Z,16.00
2022-11-16T12:11:24.155Z,16.10
2022-11-16T12:14:06.457Z,16.20
2022-11-16T12:16:44.473Z,16.10
2022-11-16T12:20:14.449Z,16.10
2022-11-16T12:23:19.432Z,16.30
2022-11-16T12:26:17.450Z,16.20
2022-11-16T12:30:09.342Z,16.30
2022-11-16T12:33:07.470Z,16.30
2022-11-16T12:36:08.037Z,16.30
2022-11-16T12:38:43.490Z,16.50
2022-11-16T12:41:48.613Z,16.50
2022-11-16T12:45:01.442Z,16.60
2022-11-16T12:47:44.801Z,16.50
2022-11-16T12:50:50.481Z,16.60
2022-11-16T12:53:38.578Z,16.60
2022-11-16T12:56:53.520Z,16.50
2022-11-16T12:59:53.822Z,16.60
2022-11-16T13:03:21.447Z,16.70
2022-11-16T13:06:11.486Z,16.60
2022-11-16T13:09:02.855Z,16.60
2022-11-16T13:11:46.456Z,16.60
2022-11-16T13:14:19.390Z,16.70
2022-11-16T13:16:52.477Z,16.70
2022-11-16T13:19:19.393Z,16.70
2022-11-16T13:22:03.530Z,16.80
2022-11-16T13:24:48.437Z,16.80
2022-11-16T13:27:55.501Z,16.90
2022-11-16T13:30:37.486Z,16.90
2022-11-16T13:33:38.491Z,16.80
2022-11-16T13:36:42.506Z,16.70
2022-11-16T13:39:20.344Z,16.60
2022-11-16T13:42:12.482Z,16.50
2022-11-16T13:44:51.315Z,16.40
2022-11-16T13:47:25.644Z,16.40
2022-11-16T13:50:04.510Z,16.60
2022-11-16T13:55:50.496Z,16.60
2022-11-16T13:58:21.258Z,16.50
2022-11-16T14:01:14.556Z,16.50
2022-11-16T14:03:42.561Z,16.40
2022-11-16T14:06:31.535Z,16.50
2022-11-16T14:08:59.300Z,16.50
2022-11-16T14:11:46.531Z,16.50
2022-11-16T14:14:52.275Z,16.40
2022-11-16T14:17:58.523Z,16.40
2022-11-16T14:20:51.368Z,16.40
2022-11-16T14:23:55.507Z,16.40
2022-11-16T14:27:13.557Z,16.30
2022-11-16T14:30:19.089Z,16.30
2022-11-16T14:32:57.526Z,16.30
2022-11-16T14:35:37.268Z,16.30
2022-11-16T14:38:26.519Z,16.10
2022-11-16T14:40:58.935Z,16.10
2022-11-16T14:43:41.532Z,16.10
2022-11-16T14:46:33.235Z,16.00
2022-11-16T14:49:07.547Z,16.00
2022-11-16T14:51:36.520Z,16.00
2022-11-16T14:54:34.543Z,15.90
2022-11-16T14:57:06.943Z,15.90
2022-11-16T14:59:40.530Z,15.90
2022-11-16T15:02:22.559Z,15.90
2022-11-16T15:04:56.567Z,15.80
2022-11-16T15:07:23.583Z,15.80
2022-11-16T15:09:59.565Z,15.70
2022-11-16T15:12:39.171Z,15.70
2022-11-16T15:15:36.610Z,15.70
2022-11-16T15:18:09.654Z,15.60
2022-11-16T15:20:44.620Z,15.60
2022-11-16T15:23:23.840Z,15.50
2022-11-16T15:26:04.545Z,15.40
2022-11-16T15:28:38.582Z,15.30
2022-11-16T15:31:12.616Z,15.30
2022-11-16T15:33:49.565Z,15.10
2022-11-16T15:36:35.089Z,15.10
2022-11-16T15:39:08.629Z,15.00
2022-11-16T15:41:41.632Z,14.90
2022-11-16T15:44:15.013Z,14.80
2022-11-16T15:46:51.632Z,14.70
2022-11-16T15:49:30.361Z,14.60
2022-11-16T15:52:06.594Z,14.50
2022-11-16T15:54:35.057Z,14.40
2022-11-16T15:57:13.740Z,14.30
2022-11-16T15:59:40.715Z,14.20
2022-11-16T16:02:29.674Z,14.20
2022-11-16T16:04:56.795Z,14.10
2022-11-16T16:07:43.570Z,14.00
2022-11-16T16:10:23.381Z,13.90
2022-11-16T16:13:04.616Z,13.80
2022-11-16T16:15:34.247Z,13.70
2022-11-16T16:18:08.628Z,13.60
2022-11-16T16:20:35.589Z,13.50
2022-11-16T16:23:20.628Z,13.40
2022-11-16T16:25:50.480Z,13.40
2022-11-16T16:28:24.631Z,13.30
2022-11-16T16:30:51.666Z,13.30
2022-11-16T16:33:21.812Z,13.20
2022-11-16T16:35:55.650Z,13.10
2022-11-16T16:38:22.610Z,13.10
2022-11-16T16:40:55.698Z,12.90
2022-11-16T16:43:22.693Z,12.80
2022-11-16T16:45:49.722Z,12.70
2022-11-16T16:48:23.623Z,12.70
2022-11-16T16:50:50.618Z,12.50
2022-11-16T16:53:23.670Z,12.30
2022-11-16T16:55:50.692Z,12.30
2022-11-16T16:58:24.641Z,12.30
2022-11-16T17:00:53.708Z,12.30
2022-11-16T17:03:30.610Z,12.30
2022-11-16T17:06:01.373Z,12.20
2022-11-16T17:08:40.670Z,12.20
2022-11-16T17:11:07.624Z,12.00
2022-11-16T17:13:34.857Z,11.80
2022-11-16T17:16:11.713Z,11.70
2022-11-16T17:18:45.658Z,11.70
2022-11-16T17:21:12.924Z,11.50
2022-11-16T17:23:39.905Z,11.40
2022-11-16T17:26:14.715Z,11.40
2022-11-16T17:28:41.742Z,11.20
2022-11-16T17:31:16.739Z,11.30
2022-11-16T17:33:43.694Z,11.30
2022-11-16T17:36:18.637Z,11.10
2022-11-16T17:38:45.578Z,11.00
2022-11-16T17:41:26.661Z,10.80
2022-11-16T17:43:54.119Z,10.80
2022-11-16T17:46:23.031Z,10.70
2022-11-16T17:48:57.769Z,10.50
2022-11-16T17:51:25.295Z,10.40
2022-11-16T17:53:58.664Z,10.30
2022-11-16T17:56:26.640Z,10.30
2022-11-16T17:59:00.660Z,10.30
2022-11-16T18:01:27.801Z,10.30
2022-11-16T18:03:54.882Z,10.20
2022-11-16T18:06:29.745Z,10.00
2022-11-16T18:08:57.169Z,10.00
2022-11-16T18:11:27.712Z,9.90
2022-11-16T18:14:03.670Z,9.80
2022-11-16T18:16:32.358Z,9.80
2022-11-16T18:19:07.672Z,9.60
2022-11-16T18:21:47.681Z,9.50
2022-11-16T18:24:14.704Z,9.60
2022-11-16T18:26:47.682Z,9.50
2022-11-16T18:29:20.759Z,9.40
2022-11-16T18:31:47.767Z,9.40
2022-11-16T18:34:21.737Z,9.50
2022-11-16T18:36:48.556Z,9.30
2022-11-16T18:39:15.403Z,9.30
2022-11-16T18:41:54.994Z,9.20
2022-11-16T18:44:22.397Z,9.10
2022-11-16T18:46:55.667Z,9.10
2022-11-16T18:49:22.489Z,9.10
2022-11-16T18:51:55.655Z,8.90
2022-11-16T18:54:22.517Z,8.80
2022-11-16T18:56:49.378Z,8.80
2022-11-16T18:59:22.702Z,8.80
2022-11-16T19:01:49.746Z,8.80
2022-11-16T19:04:16.711Z,8.70
2022-11-16T19:06:50.758Z,8.70
2022-11-16T19:09:17.802Z,8.70
2022-11-16T19:11:51.701Z,8.70
2022-11-16T19:14:24.696Z,8.70
2022-11-16T19:16:56.885Z,8.60
2022-11-16T19:19:24.313Z,8.60
2022-11-16T19:21:57.736Z,8.50
2022-11-16T19:24:24.741Z,8.50
2022-11-16T19:26:58.713Z,8.40
2022-11-16T19:29:25.739Z,8.40
2022-11-16T19:31:59.718Z,8.30
2022-11-16T19:34:32.991Z,8.30
2022-11-16T19:37:06.708Z,8.20
2022-11-16T19:39:33.702Z,8.20
2022-11-16T19:42:00.756Z,8.10
2022-11-16T19:44:34.832Z,8.00
2022-11-16T19:47:01.813Z,7.90
2022-11-16T19:49:35.724Z,7.80
2022-11-16T19:52:02.829Z,7.80
2022-11-16T19:54:36.739Z,7.80
2022-11-16T19:57:03.790Z,7.80
2022-11-16T19:59:30.762Z,7.80
2022-11-16T20:02:04.771Z,7.80
2022-11-16T20:04:31.812Z,7.80
2022-11-16T20:07:05.765Z,7.80
2022-11-16T20:09:33.002Z,8.00
2022-11-16T20:12:06.745Z,8.00
2022-11-16T20:14:33.880Z,8.00
2022-11-16T20:17:07.907Z,8.10
2022-11-16T20:19:34.820Z,8.10
2022-11-16T20:22:01.869Z,8.20
2022-11-16T20:24:35.769Z,8.20
2022-11-16T20:27:02.785Z,8.30
2022-11-16T20:29:36.758Z,8.20
2022-11-16T20:32:03.819Z,8.30
2022-11-16T20:34:37.831Z,8.00
2022-11-16T20:37:04.857Z,7.80
2022-11-16T20:39:38.824Z,7.70
2022-11-16T20:42:06.014Z,7.80
2022-11-16T20:44:39.978Z,7.60
2022-11-16T20:47:07.038Z,7.40
2022-11-16T20:49:34.041Z,7.40
2022-11-16T20:52:07.761Z,7.40
2022-11-16T20:54:41.511Z,7.40
2022-11-16T20:57:14.811Z,7.20
2022-11-16T20:59:41.723Z,7.30
2022-11-16T21:02:16.771Z,7.40
2022-11-16T21:04:52.790Z,7.40
2022-11-16T21:07:23.252Z,7.10
2022-11-16T21:09:56.761Z,7.10
2022-11-16T21:12:24.846Z,7.20
2022-11-16T21:14:58.804Z,7.30
2022-11-16T21:17:25.771Z,7.30
2022-11-16T21:20:25.324Z,7.40
2022-11-16T21:22:45.747Z,7.50
2022-11-16T21:25:18.840Z,7.50
2022-11-16T21:27:52.729Z,7.60
2022-11-16T21:30:19.916Z,7.60
2022-11-16T21:32:46.817Z,7.50
2022-11-16T21:35:20.863Z,7.60
2022-11-16T21:37:47.890Z,7.60
2022-11-16T21:40:21.821Z,7.50
2022-11-16T21:42:48.863Z,7.60
2022-11-16T21:45:22.813Z,7.60
2022-11-16T21:47:56.751Z,7.50
2022-11-16T21:50:31.683Z,7.40
2022-11-16T21:53:06.822Z,7.20
2022-11-16T21:55:33.992Z,7.00
2022-11-16T21:58:01.310Z,6.90
2022-11-16T22:00:34.852Z,6.80
2022-11-16T22:03:01.927Z,6.70
2022-11-16T22:05:28.974Z,6.80
2022-11-16T22:08:02.777Z,6.80
2022-11-16T22:10:37.021Z,6.90
2022-11-16T22:13:04.100Z,7.00
2022-11-16T22:15:37.809Z,6.80
2022-11-16T22:18:05.086Z,6.70
2022-11-16T22:20:32.069Z,6.60
2022-11-16T22:23:06.120Z,6.60
2022-11-16T22:25:33.200Z,6.70
2022-11-16T22:28:20.699Z,6.70
2022-11-16T22:30:53.849Z,6.60
2022-11-16T22:33:20.984Z,6.50
2022-11-16T22:35:54.930Z,6.50
2022-11-16T22:38:22.095Z,6.50
2022-11-16T22:40:53.252Z,6.50
2022-11-16T22:43:27.893Z,6.60
2022-11-16T22:46:08.910Z,6.60
2022-11-16T22:48:40.355Z,6.60
2022-11-16T22:51:26.887Z,6.40
2022-11-16T22:53:57.464Z,6.50
2022-11-16T22:56:30.804Z,6.50
2022-11-16T22:58:57.961Z,6.50
2022-11-16T23:01:31.943Z,6.40
2022-11-16T23:03:58.947Z,6.30
2022-11-16T23:06:32.872Z,6.40
2022-11-16T23:09:00.028Z,6.60
2022-11-16T23:11:34.007Z,6.80
2022-11-16T23:14:01.247Z,6.90
2022-11-16T23:16:28.380Z,7.00
2022-11-16T23:19:01.881Z,7.10
2022-11-16T23:21:28.861Z,7.10
2022-11-16T23:24:02.829Z,7.20
2022-11-16T23:26:35.855Z,7.40
2022-11-16T23:29:02.864Z,7.40
2022-11-16T23:31:35.844Z,7.30
2022-11-16T23:34:02.999Z,7.20
2022-11-16T23:36:36.952Z,7.20
2022-11-16T23:39:03.964Z,7.20
2022-11-16T23:41:37.881Z,7.30
2022-11-16T23:44:11.922Z,7.20
2022-11-16T23:46:45.837Z,7.20
2022-11-16T23:49:12.738Z,7.30
2022-11-16T23:51:45.841Z,7.30
2022-11-16T23:54:12.748Z,7.40
2022-11-16T23:56:45.848Z,7.50
2022-11-16T23:59:12.800Z,7.70
